sensor_id;sensor_type;location;lat;lon;timestamp;temperature;humidity
12434;DHT22;6281;49.038;8.372;2022-10-15T00:01:53;15.50;99.90
12434;DHT22;6281;49.038;8.372;2022-10-15T00:04:22;15.40;99.90
12434;DHT22;6281;49.038;8.372;2022-10-15T00:06:49;15.40;99.90
12434;DHT22;6281;49.038;8.372;2022-10-15T00:09:17;15.40;99.90
12434;DHT22;6281;49.038;8.372;2022-10-15T00:11:45;15.40;99.90
12434;DHT22;6281;49.038;8.372;2022-10-15T00:14:12;15.40;99.90
12434;DHT22;6281;49.038;8.372;2022-10-15T00:16:39;15.40;99.90
12434;DHT22;6281;49.038;8.372;2022-10-15T00:19:06;15.40;99.90
12434;DHT22;6281;49.038;8.372;2022-10-15T00:21:33;15.30;99.90
12434;DHT22;6281;49.038;8.372;2022-10-15T00:24:00;15.40;99.90
12434;DHT22;6281;49.038;8.372;2022-10-15T00:26:31;15.40;99.90
12434;DHT22;6281;49.038;8.372;2022-10-15T00:29:00;15.40;99.90
12434;DHT22;6281;49.038;8.372;2022-10-15T00:31:29;15.40;99.90
12434;DHT22;6281;49.038;8.372;2022-10-15T00:33:58;15.40;99.90
12434;DHT22;6281;49.038;8.372;2022-10-15T00:36:28;15.50;99.90
12434;DHT22;6281;49.038;8.372;2022-10-15T00:38:56;15.50;99.90
12434;DHT22;6281;49.038;8.372;2022-10-15T00:41:25;15.50;99.90
12434;DHT22;6281;49.038;8.372;2022-10-15T00:43:58;15.50;99.90
12434;DHT22;6281;49.038;8.372;2022-10-15T00:46:29;15.50;99.90
12434;DHT22;6281;49.038;8.372;2022-10-15T00:49:04;15.50;99.90
12434;DHT22;6281;49.038;8.372;2022-10-15T00:51:38;15.50;99.90
12434;DHT22;6281;49.038;8.372;2022-10-15T00:54:08;15.60;99.90
12434;DHT22;6281;49.038;8.372;2022-10-15T00:56:38;15.50;99.90
12434;DHT22;6281;49.038;8.372;2022-10-15T00:59:07;15.50;99.90
12434;DHT22;6281;49.038;8.372;2022-10-15T01:01:35;15.50;99.90
12434;DHT22;6281;49.038;8.372;2022-10-15T01:04:02;15.50;99.90
12434;DHT22;6281;49.038;8.372;2022-10-15T01:06:30;15.50;99.90
12434;DHT22;6281;49.038;8.372;2022-10-15T01:08:57;15.50;99.90
12434;DHT22;6281;49.038;8.372;2022-10-15T01:11:36;15.50;99.90
12434;DHT22;6281;49.038;8.372;2022-10-15T01:14:19;15.50;99.90
12434;DHT22;6281;49.038;8.372;2022-10-15T01:16:49;15.50;99.90
12434;DHT22;6281;49.038;8.372;2022-10-15T01:19:32;15.50;99.90
12434;DHT22;6281;49.038;8.372;2022-10-15T01:22:05;15.50;99.90
12434;DHT22;6281;49.038;8.372;2022-10-15T01:24:44;15.50;99.90
12434;DHT22;6281;49.038;8.372;2022-10-15T01:27:37;15.50;99.90
12434;DHT22;6281;49.038;8.372;2022-10-15T01:30:21;15.50;99.90
12434;DHT22;6281;49.038;8.372;2022-10-15T01:33:02;15.60;99.90
12434;DHT22;6281;49.038;8.372;2022-10-15T01:35:36;15.60;99.90
12434;DHT22;6281;49.038;8.372;2022-10-15T01:38:11;15.60;99.90
12434;DHT22;6281;49.038;8.372;2022-10-15T01:40:46;15.60;99.90
12434;DHT22;6281;49.038;8.372;2022-10-15T01:43:16;15.60;99.90
12434;DHT22;6281;49.038;8.372;2022-10-15T01:45:52;15.60;99.90
12434;DHT22;6281;49.038;8.372;2022-10-15T01:48:23;15.60;99.90
12434;DHT22;6281;49.038;8.372;2022-10-15T01:50:54;15.60;99.90
12434;DHT22;6281;49.038;8.372;2022-10-15T01:53:25;15.60;99.90
12434;DHT22;6281;49.038;8.372;2022-10-15T01:55:54;15.60;99.90
12434;DHT22;6281;49.038;8.372;2022-10-15T01:58:23;15.70;99.90
12434;DHT22;6281;49.038;8.372;2022-10-15T02:00:53;15.70;99.90
12434;DHT22;6281;49.038;8.372;2022-10-15T02:03:21;15.60;99.90
12434;DHT22;6281;49.038;8.372;2022-10-15T02:05:53;15.60;99.90
12434;DHT22;6281;49.038;8.372;2022-10-15T02:08:33;15.60;99.90
12434;DHT22;6281;49.038;8.372;2022-10-15T02:11:08;15.70;99.90
12434;DHT22;6281;49.038;8.372;2022-10-15T02:13:44;15.70;99.90
12434;DHT22;6281;49.038;8.372;2022-10-15T02:16:20;15.70;99.90
12434;DHT22;6281;49.038;8.372;2022-10-15T02:18:50;15.80;99.90
12434;DHT22;6281;49.038;8.372;2022-10-15T02:21:27;15.70;99.90
12434;DHT22;6281;49.038;8.372;2022-10-15T02:24:01;15.70;99.90
12434;DHT22;6281;49.038;8.372;2022-10-15T02:26:30;15.70;99.90
12434;DHT22;6281;49.038;8.372;2022-10-15T02:29:00;15.70;99.90
12434;DHT22;6281;49.038;8.372;2022-10-15T02:31:30;15.70;99.90
12434;DHT22;6281;49.038;8.372;2022-10-15T02:34:02;15.70;99.90
12434;DHT22;6281;49.038;8.372;2022-10-15T02:36:29;15.70;99.90
12434;DHT22;6281;49.038;8.372;2022-10-15T02:39:00;15.70;99.90
12434;DHT22;6281;49.038;8.372;2022-10-15T02:41:33;15.80;99.90
12434;DHT22;6281;49.038;8.372;2022-10-15T02:44:00;15.80;99.90
12434;DHT22;6281;49.038;8.372;2022-10-15T02:46:27;15.80;99.90
12434;DHT22;6281;49.038;8.372;2022-10-15T02:48:56;15.90;99.90
12434;DHT22;6281;49.038;8.372;2022-10-15T02:51:23;15.90;99.90
12434;DHT22;6281;49.038;8.372;2022-10-15T02:53:50;15.90;99.90
12434;DHT22;6281;49.038;8.372;2022-10-15T02:56:17;16.00;99.90
12434;DHT22;6281;49.038;8.372;2022-10-15T02:58:43;16.00;99.90
12434;DHT22;6281;49.038;8.372;2022-10-15T03:01:10;16.00;99.90
12434;DHT22;6281;49.038;8.372;2022-10-15T03:03:37;16.00;99.90
12434;DHT22;6281;49.038;8.372;2022-10-15T03:06:06;16.00;99.90
12434;DHT22;6281;49.038;8.372;2022-10-15T03:08:33;16.00;99.90
12434;DHT22;6281;49.038;8.372;2022-10-15T03:11:00;16.00;99.90
12434;DHT22;6281;49.038;8.372;2022-10-15T03:13:27;16.00;99.90
12434;DHT22;6281;49.038;8.372;2022-10-15T03:15:54;16.00;99.90
12434;DHT22;6281;49.038;8.372;2022-10-15T03:18:22;16.00;99.90
12434;DHT22;6281;49.038;8.372;2022-10-15T03:20:52;16.00;99.90
12434;DHT22;6281;49.038;8.372;2022-10-15T03:23:21;16.00;99.90
12434;DHT22;6281;49.038;8.372;2022-10-15T03:25:48;16.00;99.90
12434;DHT22;6281;49.038;8.372;2022-10-15T03:28:15;16.00;99.90
12434;DHT22;6281;49.038;8.372;2022-10-15T03:30:42;16.00;99.90
12434;DHT22;6281;49.038;8.372;2022-10-15T03:33:09;16.00;99.90
12434;DHT22;6281;49.038;8.372;2022-10-15T03:35:37;16.00;99.90
12434;DHT22;6281;49.038;8.372;2022-10-15T03:38:04;16.00;99.90
12434;DHT22;6281;49.038;8.372;2022-10-15T03:40:32;16.10;99.90
12434;DHT22;6281;49.038;8.372;2022-10-15T03:42:59;16.10;99.90
12434;DHT22;6281;49.038;8.372;2022-10-15T03:45:26;16.10;99.90
12434;DHT22;6281;49.038;8.372;2022-10-15T03:47:53;16.10;99.90
12434;DHT22;6281;49.038;8.372;2022-10-15T03:50:19;16.10;99.90
12434;DHT22;6281;49.038;8.372;2022-10-15T03:52:46;16.10;99.90
12434;DHT22;6281;49.038;8.372;2022-10-15T03:55:23;16.10;99.90
12434;DHT22;6281;49.038;8.372;2022-10-15T03:57:51;16.20;99.90
12434;DHT22;6281;49.038;8.372;2022-10-15T04:00:18;16.10;99.90
12434;DHT22;6281;49.038;8.372;2022-10-15T04:02:45;16.10;99.90
12434;DHT22;6281;49.038;8.372;2022-10-15T04:05:12;16.10;99.90
12434;DHT22;6281;49.038;8.372;2022-10-15T04:07:39;16.10;99.90
12434;DHT22;6281;49.038;8.372;2022-10-15T04:10:07;16.10;99.90
12434;DHT22;6281;49.038;8.372;2022-10-15T04:12:34;16.10;99.90
12434;DHT22;6281;49.038;8.372;2022-10-15T04:15:03;16.10;99.90
12434;DHT22;6281;49.038;8.372;2022-10-15T04:17:30;16.10;99.90
12434;DHT22;6281;49.038;8.372;2022-10-15T04:19:56;16.10;99.90
12434;DHT22;6281;49.038;8.372;2022-10-15T04:22:23;16.10;99.90
12434;DHT22;6281;49.038;8.372;2022-10-15T04:24:50;16.10;99.90
12434;DHT22;6281;49.038;8.372;2022-10-15T04:27:17;16.10;99.90
12434;DHT22;6281;49.038;8.372;2022-10-15T04:29:46;16.00;99.90
12434;DHT22;6281;49.038;8.372;2022-10-15T04:32:15;16.10;99.90
12434;DHT22;6281;49.038;8.372;2022-10-15T04:34:42;16.00;99.90
12434;DHT22;6281;49.038;8.372;2022-10-15T04:37:10;16.00;99.90
12434;DHT22;6281;49.038;8.372;2022-10-15T04:39:37;16.00;99.90
12434;DHT22;6281;49.038;8.372;2022-10-15T04:42:04;16.00;99.90
12434;DHT22;6281;49.038;8.372;2022-10-15T04:44:31;16.00;99.90
12434;DHT22;6281;49.038;8.372;2022-10-15T04:46:58;16.00;99.90
12434;DHT22;6281;49.038;8.372;2022-10-15T04:49:26;15.90;99.90
12434;DHT22;6281;49.038;8.372;2022-10-15T04:51:53;16.00;99.90
12434;DHT22;6281;49.038;8.372;2022-10-15T04:54:20;16.00;99.90
12434;DHT22;6281;49.038;8.372;2022-10-15T04:56:47;16.00;99.90
12434;DHT22;6281;49.038;8.372;2022-10-15T04:59:14;16.00;99.90
12434;DHT22;6281;49.038;8.372;2022-10-15T05:01:40;16.00;99.90
12434;DHT22;6281;49.038;8.372;2022-10-15T05:04:09;16.00;99.90
12434;DHT22;6281;49.038;8.372;2022-10-15T05:06:38;16.00;99.90
12434;DHT22;6281;49.038;8.372;2022-10-15T05:09:04;15.90;99.90
12434;DHT22;6281;49.038;8.372;2022-10-15T05:11:35;15.90;99.90
12434;DHT22;6281;49.038;8.372;2022-10-15T05:14:02;16.00;99.90
12434;DHT22;6281;49.038;8.372;2022-10-15T05:16:30;15.90;99.90
12434;DHT22;6281;49.038;8.372;2022-10-15T05:18:59;16.00;99.90
12434;DHT22;6281;49.038;8.372;2022-10-15T05:21:27;16.00;99.90
12434;DHT22;6281;49.038;8.372;2022-10-15T05:23:55;16.00;99.90
12434;DHT22;6281;49.038;8.372;2022-10-15T05:26:25;15.90;99.90
12434;DHT22;6281;49.038;8.372;2022-10-15T05:28:54;15.90;99.90
12434;DHT22;6281;49.038;8.372;2022-10-15T05:31:22;15.90;99.90
12434;DHT22;6281;49.038;8.372;2022-10-15T05:33:51;15.90;99.90
12434;DHT22;6281;49.038;8.372;2022-10-15T05:36:20;15.90;99.90
12434;DHT22;6281;49.038;8.372;2022-10-15T05:38:48;15.90;99.90
12434;DHT22;6281;49.038;8.372;2022-10-15T05:41:18;15.80;99.90
12434;DHT22;6281;49.038;8.372;2022-10-15T05:43:46;15.80;99.90
12434;DHT22;6281;49.038;8.372;2022-10-15T05:46:13;15.80;99.90
12434;DHT22;6281;49.038;8.372;2022-10-15T05:48:40;15.80;99.90
12434;DHT22;6281;49.038;8.372;2022-10-15T05:51:10;15.70;99.90
12434;DHT22;6281;49.038;8.372;2022-10-15T05:53:37;15.80;99.90
12434;DHT22;6281;49.038;8.372;2022-10-15T05:56:05;15.70;99.90
12434;DHT22;6281;49.038;8.372;2022-10-15T05:58:35;15.70;99.90
12434;DHT22;6281;49.038;8.372;2022-10-15T06:01:04;15.70;99.90
12434;DHT22;6281;49.038;8.372;2022-10-15T06:03:31;15.70;99.90
12434;DHT22;6281;49.038;8.372;2022-10-15T06:05:58;15.70;99.90
12434;DHT22;6281;49.038;8.372;2022-10-15T06:08:27;15.70;99.90
12434;DHT22;6281;49.038;8.372;2022-10-15T06:10:54;15.70;99.90
12434;DHT22;6281;49.038;8.372;2022-10-15T06:13:23;15.70;99.90
12434;DHT22;6281;49.038;8.372;2022-10-15T06:15:52;15.60;99.90
12434;DHT22;6281;49.038;8.372;2022-10-15T06:18:18;15.60;99.90
12434;DHT22;6281;49.038;8.372;2022-10-15T06:20:50;15.60;99.90
12434;DHT22;6281;49.038;8.372;2022-10-15T06:23:17;15.60;99.90
12434;DHT22;6281;49.038;8.372;2022-10-15T06:25:44;15.60;99.90
12434;DHT22;6281;49.038;8.372;2022-10-15T06:28:11;15.60;99.90
12434;DHT22;6281;49.038;8.372;2022-10-15T06:30:38;15.60;99.90
12434;DHT22;6281;49.038;8.372;2022-10-15T06:33:06;15.60;99.90
12434;DHT22;6281;49.038;8.372;2022-10-15T06:35:33;15.60;99.90
12434;DHT22;6281;49.038;8.372;2022-10-15T06:38:01;15.60;99.90
12434;DHT22;6281;49.038;8.372;2022-10-15T06:40:28;15.60;99.90
12434;DHT22;6281;49.038;8.372;2022-10-15T06:42:55;15.60;99.90
12434;DHT22;6281;49.038;8.372;2022-10-15T06:45:28;15.60;99.90
12434;DHT22;6281;49.038;8.372;2022-10-15T06:47:55;15.70;99.90
12434;DHT22;6281;49.038;8.372;2022-10-15T06:50:23;15.60;99.90
12434;DHT22;6281;49.038;8.372;2022-10-15T06:52:50;15.70;99.90
12434;DHT22;6281;49.038;8.372;2022-10-15T06:55:17;15.60;99.90
12434;DHT22;6281;49.038;8.372;2022-10-15T06:57:44;15.60;99.90
12434;DHT22;6281;49.038;8.372;2022-10-15T07:00:12;15.70;99.90
12434;DHT22;6281;49.038;8.372;2022-10-15T07:02:39;15.60;99.90
12434;DHT22;6281;49.038;8.372;2022-10-15T07:05:07;15.60;99.90
12434;DHT22;6281;49.038;8.372;2022-10-15T07:07:35;15.60;99.90
12434;DHT22;6281;49.038;8.372;2022-10-15T07:10:03;15.70;99.90
12434;DHT22;6281;49.038;8.372;2022-10-15T07:12:30;15.60;99.90
12434;DHT22;6281;49.038;8.372;2022-10-15T07:14:56;15.60;99.90
12434;DHT22;6281;49.038;8.372;2022-10-15T07:17:23;15.70;99.90
12434;DHT22;6281;49.038;8.372;2022-10-15T07:19:50;15.60;99.90
12434;DHT22;6281;49.038;8.372;2022-10-15T07:22:17;15.60;99.90
12434;DHT22;6281;49.038;8.372;2022-10-15T07:24:46;15.60;99.90
12434;DHT22;6281;49.038;8.372;2022-10-15T07:27:12;15.60;99.90
12434;DHT22;6281;49.038;8.372;2022-10-15T07:29:39;15.60;99.90
12434;DHT22;6281;49.038;8.372;2022-10-15T07:32:06;15.70;99.90
12434;DHT22;6281;49.038;8.372;2022-10-15T07:34:33;15.60;99.90
12434;DHT22;6281;49.038;8.372;2022-10-15T07:37:00;15.60;99.90
12434;DHT22;6281;49.038;8.372;2022-10-15T07:39:27;15.70;99.90
12434;DHT22;6281;49.038;8.372;2022-10-15T07:41:55;15.70;99.90
12434;DHT22;6281;49.038;8.372;2022-10-15T07:44:22;15.80;99.90
12434;DHT22;6281;49.038;8.372;2022-10-15T07:46:49;15.80;99.90
12434;DHT22;6281;49.038;8.372;2022-10-15T07:49:16;15.80;99.90
12434;DHT22;6281;49.038;8.372;2022-10-15T07:51:43;15.80;99.90
12434;DHT22;6281;49.038;8.372;2022-10-15T07:54:10;15.80;99.90
12434;DHT22;6281;49.038;8.372;2022-10-15T07:56:36;15.90;99.90
12434;DHT22;6281;49.038;8.372;2022-10-15T07:59:08;15.80;99.90
12434;DHT22;6281;49.038;8.372;2022-10-15T08:01:35;15.80;99.90
12434;DHT22;6281;49.038;8.372;2022-10-15T08:04:02;15.80;99.90
12434;DHT22;6281;49.038;8.372;2022-10-15T08:06:30;15.80;99.90
12434;DHT22;6281;49.038;8.372;2022-10-15T08:08:57;15.80;99.90
12434;DHT22;6281;49.038;8.372;2022-10-15T08:11:24;15.80;99.90
12434;DHT22;6281;49.038;8.372;2022-10-15T08:13:52;15.90;99.90
12434;DHT22;6281;49.038;8.372;2022-10-15T08:16:20;15.90;99.90
12434;DHT22;6281;49.038;8.372;2022-10-15T08:18:47;16.00;99.90
12434;DHT22;6281;49.038;8.372;2022-10-15T08:21:14;15.90;99.90
12434;DHT22;6281;49.038;8.372;2022-10-15T08:23:41;15.90;99.90
12434;DHT22;6281;49.038;8.372;2022-10-15T08:26:08;16.00;99.90
12434;DHT22;6281;49.038;8.372;2022-10-15T08:28:35;16.00;99.90
12434;DHT22;6281;49.038;8.372;2022-10-15T08:31:02;16.00;99.90
12434;DHT22;6281;49.038;8.372;2022-10-15T08:33:32;16.00;99.90
12434;DHT22;6281;49.038;8.372;2022-10-15T08:35:59;16.00;99.90
12434;DHT22;6281;49.038;8.372;2022-10-15T08:38:26;16.00;99.90
12434;DHT22;6281;49.038;8.372;2022-10-15T08:40:55;16.10;99.90
12434;DHT22;6281;49.038;8.372;2022-10-15T08:43:34;15.90;99.90
12434;DHT22;6281;49.038;8.372;2022-10-15T08:46:04;15.90;99.90
12434;DHT22;6281;49.038;8.372;2022-10-15T08:48:35;15.80;99.90
12434;DHT22;6281;49.038;8.372;2022-10-15T08:51:07;16.00;99.90
12434;DHT22;6281;49.038;8.372;2022-10-15T08:53:37;16.00;99.90
12434;DHT22;6281;49.038;8.372;2022-10-15T08:56:12;16.00;99.90
12434;DHT22;6281;49.038;8.372;2022-10-15T08:58:45;16.00;99.90
12434;DHT22;6281;49.038;8.372;2022-10-15T09:01:20;16.10;99.90
12434;DHT22;6281;49.038;8.372;2022-10-15T09:04:00;16.10;99.90
12434;DHT22;6281;49.038;8.372;2022-10-15T09:06:31;16.30;99.90
12434;DHT22;6281;49.038;8.372;2022-10-15T09:09:06;16.30;99.90
12434;DHT22;6281;49.038;8.372;2022-10-15T09:11:46;16.30;99.90
12434;DHT22;6281;49.038;8.372;2022-10-15T09:14:18;16.40;99.90
12434;DHT22;6281;49.038;8.372;2022-10-15T09:16:48;16.40;99.90
12434;DHT22;6281;49.038;8.372;2022-10-15T09:19:19;16.50;99.90
12434;DHT22;6281;49.038;8.372;2022-10-15T09:21:47;16.50;99.90
12434;DHT22;6281;49.038;8.372;2022-10-15T09:24:20;16.60;99.90
12434;DHT22;6281;49.038;8.372;2022-10-15T09:27:00;16.80;99.90
12434;DHT22;6281;49.038;8.372;2022-10-15T09:29:32;16.90;99.90
12434;DHT22;6281;49.038;8.372;2022-10-15T09:32:08;17.10;99.90
12434;DHT22;6281;49.038;8.372;2022-10-15T09:34:42;17.10;99.90
12434;DHT22;6281;49.038;8.372;2022-10-15T09:37:15;17.20;99.90
12434;DHT22;6281;49.038;8.372;2022-10-15T09:39:57;17.20;99.90
12434;DHT22;6281;49.038;8.372;2022-10-15T09:42:30;17.30;99.90
12434;DHT22;6281;49.038;8.372;2022-10-15T09:45:00;17.40;99.90
12434;DHT22;6281;49.038;8.372;2022-10-15T09:47:29;17.30;99.90
12434;DHT22;6281;49.038;8.372;2022-10-15T09:49:58;17.40;99.90
12434;DHT22;6281;49.038;8.372;2022-10-15T09:52:36;17.30;99.90
12434;DHT22;6281;49.038;8.372;2022-10-15T09:55:25;17.40;99.90
12434;DHT22;6281;49.038;8.372;2022-10-15T09:57:56;17.40;99.90
12434;DHT22;6281;49.038;8.372;2022-10-15T10:00:24;17.40;99.90
12434;DHT22;6281;49.038;8.372;2022-10-15T10:03:02;17.40;99.90
12434;DHT22;6281;49.038;8.372;2022-10-15T10:05:35;17.40;99.90
12434;DHT22;6281;49.038;8.372;2022-10-15T10:08:08;17.40;99.90
12434;DHT22;6281;49.038;8.372;2022-10-15T10:10:36;17.50;99.90
12434;DHT22;6281;49.038;8.372;2022-10-15T10:13:07;17.70;99.90
12434;DHT22;6281;49.038;8.372;2022-10-15T10:15:35;17.60;99.90
12434;DHT22;6281;49.038;8.372;2022-10-15T10:18:04;17.60;99.90
12434;DHT22;6281;49.038;8.372;2022-10-15T10:20:33;17.60;99.90
12434;DHT22;6281;49.038;8.372;2022-10-15T10:23:02;17.60;99.90
12434;DHT22;6281;49.038;8.372;2022-10-15T10:25:36;17.80;99.90
12434;DHT22;6281;49.038;8.372;2022-10-15T10:28:13;17.80;99.90
12434;DHT22;6281;49.038;8.372;2022-10-15T10:30:49;18.40;99.90
12434;DHT22;6281;49.038;8.372;2022-10-15T10:33:23;18.80;99.90
12434;DHT22;6281;49.038;8.372;2022-10-15T10:35:54;18.20;99.90
12434;DHT22;6281;49.038;8.372;2022-10-15T10:38:23;18.40;99.90
12434;DHT22;6281;49.038;8.372;2022-10-15T10:40:52;19.00;99.90
12434;DHT22;6281;49.038;8.372;2022-10-15T10:43:24;18.60;99.90
12434;DHT22;6281;49.038;8.372;2022-10-15T10:45:53;18.00;99.90
12434;DHT22;6281;49.038;8.372;2022-10-15T10:48:23;18.00;99.90
12434;DHT22;6281;49.038;8.372;2022-10-15T10:51:04;18.00;99.90
12434;DHT22;6281;49.038;8.372;2022-10-15T10:53:34;18.10;99.90
12434;DHT22;6281;49.038;8.372;2022-10-15T10:56:06;18.20;99.90
12434;DHT22;6281;49.038;8.372;2022-10-15T10:58:35;18.50;99.90
12434;DHT22;6281;49.038;8.372;2022-10-15T11:01:02;18.30;99.90
12434;DHT22;6281;49.038;8.372;2022-10-15T11:03:32;18.20;99.90
12434;DHT22;6281;49.038;8.372;2022-10-15T11:09:18;18.00;99.90
12434;DHT22;6281;49.038;8.372;2022-10-15T11:11:57;17.90;99.90
12434;DHT22;6281;49.038;8.372;2022-10-15T11:14:32;17.90;99.90
12434;DHT22;6281;49.038;8.372;2022-10-15T11:17:12;17.80;99.90
12434;DHT22;6281;49.038;8.372;2022-10-15T11:19:46;17.90;99.90
12434;DHT22;6281;49.038;8.372;2022-10-15T11:22:29;18.00;99.90
12434;DHT22;6281;49.038;8.372;2022-10-15T11:25:10;18.10;99.90
12434;DHT22;6281;49.038;8.372;2022-10-15T11:27:48;18.00;99.90
12434;DHT22;6281;49.038;8.372;2022-10-15T11:30:29;18.00;99.90
12434;DHT22;6281;49.038;8.372;2022-10-15T11:33:11;18.00;99.90
12434;DHT22;6281;49.038;8.372;2022-10-15T11:36:03;17.90;99.90
12434;DHT22;6281;49.038;8.372;2022-10-15T11:38:40;17.90;99.90
12434;DHT22;6281;49.038;8.372;2022-10-15T11:41:35;17.90;99.90
12434;DHT22;6281;49.038;8.372;2022-10-15T11:44:20;18.00;99.90
12434;DHT22;6281;49.038;8.372;2022-10-15T11:46:54;18.00;99.90
12434;DHT22;6281;49.038;8.372;2022-10-15T11:49:36;18.00;99.90
12434;DHT22;6281;49.038;8.372;2022-10-15T11:52:26;17.90;99.90
12434;DHT22;6281;49.038;8.372;2022-10-15T11:55:03;17.90;99.90
12434;DHT22;6281;49.038;8.372;2022-10-15T11:57:35;17.80;99.90
12434;DHT22;6281;49.038;8.372;2022-10-15T12:00:15;17.80;99.90
12434;DHT22;6281;49.038;8.372;2022-10-15T12:02:46;17.90;99.90
12434;DHT22;6281;49.038;8.372;2022-10-15T12:05:17;17.80;99.90
12434;DHT22;6281;49.038;8.372;2022-10-15T12:07:46;17.60;99.90
12434;DHT22;6281;49.038;8.372;2022-10-15T12:10:26;17.60;99.90
12434;DHT22;6281;49.038;8.372;2022-10-15T12:13:03;17.60;99.90
12434;DHT22;6281;49.038;8.372;2022-10-15T12:15:35;17.70;99.90
12434;DHT22;6281;49.038;8.372;2022-10-15T12:18:13;17.70;99.90
12434;DHT22;6281;49.038;8.372;2022-10-15T12:20:44;17.70;99.90
12434;DHT22;6281;49.038;8.372;2022-10-15T12:23:23;17.60;99.90
12434;DHT22;6281;49.038;8.372;2022-10-15T12:25:50;17.50;99.90
12434;DHT22;6281;49.038;8.372;2022-10-15T12:28:21;17.40;99.90
12434;DHT22;6281;49.038;8.372;2022-10-15T12:31:00;17.40;99.90
12434;DHT22;6281;49.038;8.372;2022-10-15T12:33:35;17.30;99.90
12434;DHT22;6281;49.038;8.372;2022-10-15T12:36:16;17.20;99.90
12434;DHT22;6281;49.038;8.372;2022-10-15T12:38:55;17.00;99.90
12434;DHT22;6281;49.038;8.372;2022-10-15T12:41:33;17.10;99.90
12434;DHT22;6281;49.038;8.372;2022-10-15T12:44:19;17.00;99.90
12434;DHT22;6281;49.038;8.372;2022-10-15T12:46:46;17.00;99.90
12434;DHT22;6281;49.038;8.372;2022-10-15T12:49:44;17.10;99.90
12434;DHT22;6281;49.038;8.372;2022-10-15T12:52:49;17.20;99.90
12434;DHT22;6281;49.038;8.372;2022-10-15T12:55:26;17.20;99.90
12434;DHT22;6281;49.038;8.372;2022-10-15T12:57:58;17.20;99.90
12434;DHT22;6281;49.038;8.372;2022-10-15T13:00:39;17.10;99.90
12434;DHT22;6281;49.038;8.372;2022-10-15T13:03:17;17.10;99.90
12434;DHT22;6281;49.038;8.372;2022-10-15T13:05:46;17.10;99.90
12434;DHT22;6281;49.038;8.372;2022-10-15T13:08:18;17.00;99.90
12434;DHT22;6281;49.038;8.372;2022-10-15T13:10:51;17.10;99.90
12434;DHT22;6281;49.038;8.372;2022-10-15T13:13:22;17.00;99.90
12434;DHT22;6281;49.038;8.372;2022-10-15T13:15:54;16.90;99.90
12434;DHT22;6281;49.038;8.372;2022-10-15T13:18:22;16.80;99.90
12434;DHT22;6281;49.038;8.372;2022-10-15T13:20:50;16.70;99.90
12434;DHT22;6281;49.038;8.372;2022-10-15T13:23:23;16.70;99.90
12434;DHT22;6281;49.038;8.372;2022-10-15T13:25:52;16.70;99.90
12434;DHT22;6281;49.038;8.372;2022-10-15T13:28:37;16.60;99.90
12434;DHT22;6281;49.038;8.372;2022-10-15T13:31:13;16.40;99.90
12434;DHT22;6281;49.038;8.372;2022-10-15T13:33:43;16.30;99.90
12434;DHT22;6281;49.038;8.372;2022-10-15T13:36:19;16.20;99.90
12434;DHT22;6281;49.038;8.372;2022-10-15T13:38:52;16.30;99.90
12434;DHT22;6281;49.038;8.372;2022-10-15T13:41:23;16.30;99.90
12434;DHT22;6281;49.038;8.372;2022-10-15T13:43:51;16.20;99.90
12434;DHT22;6281;49.038;8.372;2022-10-15T13:46:24;16.30;99.90
12434;DHT22;6281;49.038;8.372;2022-10-15T13:48:56;16.10;99.90
12434;DHT22;6281;49.038;8.372;2022-10-15T13:51:26;16.30;99.90
12434;DHT22;6281;49.038;8.372;2022-10-15T13:53:55;16.30;99.90
12434;DHT22;6281;49.038;8.372;2022-10-15T13:56:25;16.30;99.90
12434;DHT22;6281;49.038;8.372;2022-10-15T13:58:53;16.30;99.90
12434;DHT22;6281;49.038;8.372;2022-10-15T14:01:21;16.30;99.90
12434;DHT22;6281;49.038;8.372;2022-10-15T14:03:50;16.30;99.90
12434;DHT22;6281;49.038;8.372;2022-10-15T14:06:19;16.40;99.90
12434;DHT22;6281;49.038;8.372;2022-10-15T14:08:48;16.50;99.90
12434;DHT22;6281;49.038;8.372;2022-10-15T14:11:15;16.50;99.90
12434;DHT22;6281;49.038;8.372;2022-10-15T14:13:43;16.30;99.90
12434;DHT22;6281;49.038;8.372;2022-10-15T14:16:14;16.30;99.90
12434;DHT22;6281;49.038;8.372;2022-10-15T14:18:44;16.20;99.90
12434;DHT22;6281;49.038;8.372;2022-10-15T14:21:14;16.30;99.90
12434;DHT22;6281;49.038;8.372;2022-10-15T14:23:44;16.30;99.90
12434;DHT22;6281;49.038;8.372;2022-10-15T14:26:12;16.30;99.90
12434;DHT22;6281;49.038;8.372;2022-10-15T14:28:43;16.50;99.90
12434;DHT22;6281;49.038;8.372;2022-10-15T14:31:32;16.50;99.90
12434;DHT22;6281;49.038;8.372;2022-10-15T14:34:03;16.30;99.90
12434;DHT22;6281;49.038;8.372;2022-10-15T14:39:34;16.50;99.90
12434;DHT22;6281;49.038;8.372;2022-10-15T14:42:02;16.60;99.90
12434;DHT22;6281;49.038;8.372;2022-10-15T14:44:43;16.70;99.90
12434;DHT22;6281;49.038;8.372;2022-10-15T14:47:18;16.70;99.90
12434;DHT22;6281;49.038;8.372;2022-10-15T14:49:49;16.60;99.90
12434;DHT22;6281;49.038;8.372;2022-10-15T14:52:17;16.60;99.90
12434;DHT22;6281;49.038;8.372;2022-10-15T14:58:00;16.70;99.90
12434;DHT22;6281;49.038;8.372;2022-10-15T15:00:37;16.60;99.90
12434;DHT22;6281;49.038;8.372;2022-10-15T15:03:05;16.60;99.90
12434;DHT22;6281;49.038;8.372;2022-10-15T15:05:43;16.60;99.90
12434;DHT22;6281;49.038;8.372;2022-10-15T15:08:10;16.50;99.90
12434;DHT22;6281;49.038;8.372;2022-10-15T15:10:37;16.60;99.90
12434;DHT22;6281;49.038;8.372;2022-10-15T15:13:05;16.60;99.90
12434;DHT22;6281;49.038;8.372;2022-10-15T15:15:32;16.60;99.90
12434;DHT22;6281;49.038;8.372;2022-10-15T15:17:59;16.60;99.90
12434;DHT22;6281;49.038;8.372;2022-10-15T15:20:26;16.60;99.90
12434;DHT22;6281;49.038;8.372;2022-10-15T15:22:53;16.60;99.90
12434;DHT22;6281;49.038;8.372;2022-10-15T15:25:25;16.60;99.90
12434;DHT22;6281;49.038;8.372;2022-10-15T15:27:53;16.60;99.90
12434;DHT22;6281;49.038;8.372;2022-10-15T15:30:23;16.50;99.90
12434;DHT22;6281;49.038;8.372;2022-10-15T15:32:51;16.50;99.90
12434;DHT22;6281;49.038;8.372;2022-10-15T15:35:21;16.60;99.90
12434;DHT22;6281;49.038;8.372;2022-10-15T15:37:49;16.60;99.90
12434;DHT22;6281;49.038;8.372;2022-10-15T15:40:52;16.60;99.90
12434;DHT22;6281;49.038;8.372;2022-10-15T15:43:19;16.60;99.90
12434;DHT22;6281;49.038;8.372;2022-10-15T15:45:47;16.50;99.90
12434;DHT22;6281;49.038;8.372;2022-10-15T15:48:14;16.60;99.90
12434;DHT22;6281;49.038;8.372;2022-10-15T15:50:42;16.50;99.90
12434;DHT22;6281;49.038;8.372;2022-10-15T15:53:10;16.60;99.90
12434;DHT22;6281;49.038;8.372;2022-10-15T15:55:37;16.60;99.90
12434;DHT22;6281;49.038;8.372;2022-10-15T15:58:04;16.60;99.90
12434;DHT22;6281;49.038;8.372;2022-10-15T16:00:31;16.70;99.90
12434;DHT22;6281;49.038;8.372;2022-10-15T16:02:59;16.60;99.90
12434;DHT22;6281;49.038;8.372;2022-10-15T16:05:29;16.60;99.90
12434;DHT22;6281;49.038;8.372;2022-10-15T16:07:56;16.60;99.90
12434;DHT22;6281;49.038;8.372;2022-10-15T16:10:23;16.60;99.90
12434;DHT22;6281;49.038;8.372;2022-10-15T16:12:50;16.50;99.90
12434;DHT22;6281;49.038;8.372;2022-10-15T16:15:17;16.50;99.90
12434;DHT22;6281;49.038;8.372;2022-10-15T16:17:44;16.50;99.90